USTRANSCOM 7537


KWRI
Joint Base McGuire Dix Lakehurst
Wrightstown, New Jersey, US
ETAR
Ramstein Air Force Base
Ramstein, , DE

Route Details

Aircraft Information
Primary: Boeing 767-300BDSF
Backup: Not Available
Route Data
Distance: 3379nm
Sched. Duration: 6h 50m
Avg. Duration: 7h 50m (+100m)
Times Flown: 1
Recm'd Route: PTPL5 SHLEP HTO WHALE N135A PORTI NATW ATSUR GAPLI UN20 SAM UM140 DVR UL9 KONAN UL607 SPI UT180 PESOV T180 NIVNU T847 SIPVU T847 OLIVI Q762 XIDOD
Planned Altitude: 35,000ft
Origin Wx:
Dest. Wx: ETAR 240756Z 25013KT 5000 -SN BR BKN013 OVC021 00/00 A2949 RMK AO2A DZE0656PLB0656E0658SNB0658E51PLB51E53SNB53 SLP001 P0000 T00020002 FZRANO
Notes: USTRANSCOM CONTRACT FLIGHT

Financial History
Total Freight: 61,536lbs
Average Load: 61,536lbs/flt
Fuel Used: 77,798lbs
Avg. Fuel Used: 77,798lbs/flt
Fuel Expense: $77,020
Avg. Fuel Expense: $77,020
Avg. Fuel Cost: $0.99/lbs
Total Gross Income: $121,841
Pilot Pay: $149
Total Expenses: $13,211
Total Revenue: $29,817
Average Revenue: $121,841.28